sensor_id;sensor_type;location;lat;lon;timestamp;P1;durP1;ratioP1;P2;durP2;ratioP2
9892;SDS011;4985;49.092;8.542;2024-02-16T00:00:43;4.80;;;2.67;;
9892;SDS011;4985;49.092;8.542;2024-02-16T00:03:09;5.17;;;3.30;;
9892;SDS011;4985;49.092;8.542;2024-02-16T00:05:35;6.20;;;3.47;;
9892;SDS011;4985;49.092;8.542;2024-02-16T00:08:01;5.43;;;3.30;;
9892;SDS011;4985;49.092;8.542;2024-02-16T00:10:28;5.97;;;3.40;;
9892;SDS011;4985;49.092;8.542;2024-02-16T00:12:53;6.40;;;3.70;;
9892;SDS011;4985;49.092;8.542;2024-02-16T00:15:18;5.23;;;3.07;;
9892;SDS011;4985;49.092;8.542;2024-02-16T00:17:44;5.00;;;2.87;;
9892;SDS011;4985;49.092;8.542;2024-02-16T00:20:09;4.17;;;2.60;;
9892;SDS011;4985;49.092;8.542;2024-02-16T00:22:37;5.43;;;3.03;;
9892;SDS011;4985;49.092;8.542;2024-02-16T00:25:03;7.20;;;3.17;;
9892;SDS011;4985;49.092;8.542;2024-02-16T00:27:29;4.90;;;2.87;;
9892;SDS011;4985;49.092;8.542;2024-02-16T00:29:54;5.20;;;3.03;;
9892;SDS011;4985;49.092;8.542;2024-02-16T00:32:20;3.97;;;2.60;;
9892;SDS011;4985;49.092;8.542;2024-02-16T00:34:45;6.67;;;3.30;;
9892;SDS011;4985;49.092;8.542;2024-02-16T00:37:11;5.17;;;3.20;;
9892;SDS011;4985;49.092;8.542;2024-02-16T00:39:39;5.13;;;3.03;;
9892;SDS011;4985;49.092;8.542;2024-02-16T00:42:07;3.80;;;3.00;;
9892;SDS011;4985;49.092;8.542;2024-02-16T00:44:33;4.10;;;3.03;;
9892;SDS011;4985;49.092;8.542;2024-02-16T00:46:58;5.90;;;3.27;;
9892;SDS011;4985;49.092;8.542;2024-02-16T00:49:24;4.20;;;2.87;;
9892;SDS011;4985;49.092;8.542;2024-02-16T00:51:49;3.50;;;2.30;;
9892;SDS011;4985;49.092;8.542;2024-02-16T00:54:15;4.23;;;2.20;;
9892;SDS011;4985;49.092;8.542;2024-02-16T00:56:42;2.73;;;1.90;;
9892;SDS011;4985;49.092;8.542;2024-02-16T00:59:07;5.10;;;2.83;;
9892;SDS011;4985;49.092;8.542;2024-02-16T01:01:34;3.50;;;2.30;;
9892;SDS011;4985;49.092;8.542;2024-02-16T01:04:00;3.47;;;2.23;;
9892;SDS011;4985;49.092;8.542;2024-02-16T01:06:26;4.07;;;2.80;;
9892;SDS011;4985;49.092;8.542;2024-02-16T01:08:51;4.77;;;2.90;;
9892;SDS011;4985;49.092;8.542;2024-02-16T01:11:16;3.53;;;2.67;;
9892;SDS011;4985;49.092;8.542;2024-02-16T01:13:42;4.67;;;2.80;;
9892;SDS011;4985;49.092;8.542;2024-02-16T01:16:08;3.07;;;2.13;;
9892;SDS011;4985;49.092;8.542;2024-02-16T01:18:35;3.53;;;2.17;;
9892;SDS011;4985;49.092;8.542;2024-02-16T01:21:02;3.23;;;2.10;;
9892;SDS011;4985;49.092;8.542;2024-02-16T01:23:28;3.00;;;2.30;;
9892;SDS011;4985;49.092;8.542;2024-02-16T01:25:54;4.07;;;2.43;;
9892;SDS011;4985;49.092;8.542;2024-02-16T01:28:19;3.23;;;2.20;;
9892;SDS011;4985;49.092;8.542;2024-02-16T01:30:44;4.20;;;2.73;;
9892;SDS011;4985;49.092;8.542;2024-02-16T01:33:10;3.37;;;2.40;;
9892;SDS011;4985;49.092;8.542;2024-02-16T01:35:35;3.37;;;2.33;;
9892;SDS011;4985;49.092;8.542;2024-02-16T01:38:01;4.40;;;2.70;;
9892;SDS011;4985;49.092;8.542;2024-02-16T01:40:26;5.67;;;2.70;;
9892;SDS011;4985;49.092;8.542;2024-02-16T01:42:52;3.27;;;2.30;;
9892;SDS011;4985;49.092;8.542;2024-02-16T01:45:18;3.90;;;2.30;;
9892;SDS011;4985;49.092;8.542;2024-02-16T01:47:43;4.83;;;2.67;;
9892;SDS011;4985;49.092;8.542;2024-02-16T01:50:11;4.03;;;2.93;;
9892;SDS011;4985;49.092;8.542;2024-02-16T01:52:37;3.47;;;2.30;;
9892;SDS011;4985;49.092;8.542;2024-02-16T01:55:03;4.00;;;2.63;;
9892;SDS011;4985;49.092;8.542;2024-02-16T01:57:30;4.33;;;2.70;;
9892;SDS011;4985;49.092;8.542;2024-02-16T01:59:56;3.57;;;2.63;;
9892;SDS011;4985;49.092;8.542;2024-02-16T02:02:22;5.00;;;2.73;;
9892;SDS011;4985;49.092;8.542;2024-02-16T02:04:47;2.87;;;2.53;;
9892;SDS011;4985;49.092;8.542;2024-02-16T02:07:13;4.17;;;2.93;;
9892;SDS011;4985;49.092;8.542;2024-02-16T02:09:40;5.90;;;3.43;;
9892;SDS011;4985;49.092;8.542;2024-02-16T02:12:05;7.93;;;4.13;;
9892;SDS011;4985;49.092;8.542;2024-02-16T02:14:31;6.37;;;3.57;;
9892;SDS011;4985;49.092;8.542;2024-02-16T02:16:57;5.63;;;3.27;;
9892;SDS011;4985;49.092;8.542;2024-02-16T02:19:22;8.30;;;3.90;;
9892;SDS011;4985;49.092;8.542;2024-02-16T02:21:47;6.73;;;3.30;;
9892;SDS011;4985;49.092;8.542;2024-02-16T02:24:13;6.40;;;3.10;;
9892;SDS011;4985;49.092;8.542;2024-02-16T02:26:38;5.80;;;2.97;;
9892;SDS011;4985;49.092;8.542;2024-02-16T02:29:04;5.03;;;3.10;;
9892;SDS011;4985;49.092;8.542;2024-02-16T02:31:30;5.20;;;2.90;;
9892;SDS011;4985;49.092;8.542;2024-02-16T02:33:55;6.63;;;2.63;;
9892;SDS011;4985;49.092;8.542;2024-02-16T02:36:21;5.53;;;2.63;;
9892;SDS011;4985;49.092;8.542;2024-02-16T02:38:46;5.13;;;2.80;;
9892;SDS011;4985;49.092;8.542;2024-02-16T02:41:12;4.07;;;2.80;;
9892;SDS011;4985;49.092;8.542;2024-02-16T02:43:41;3.53;;;2.50;;
9892;SDS011;4985;49.092;8.542;2024-02-16T02:46:06;4.23;;;2.83;;
9892;SDS011;4985;49.092;8.542;2024-02-16T02:48:32;5.23;;;2.97;;
9892;SDS011;4985;49.092;8.542;2024-02-16T02:50:57;3.90;;;2.83;;
9892;SDS011;4985;49.092;8.542;2024-02-16T02:53:24;3.30;;;2.50;;
9892;SDS011;4985;49.092;8.542;2024-02-16T02:55:53;4.67;;;2.73;;
9892;SDS011;4985;49.092;8.542;2024-02-16T02:58:18;4.03;;;2.47;;
9892;SDS011;4985;49.092;8.542;2024-02-16T03:00:43;4.57;;;2.67;;
9892;SDS011;4985;49.092;8.542;2024-02-16T03:03:09;4.80;;;2.53;;
9892;SDS011;4985;49.092;8.542;2024-02-16T03:05:34;6.43;;;3.70;;
9892;SDS011;4985;49.092;8.542;2024-02-16T03:08:00;2.43;;;2.23;;
9892;SDS011;4985;49.092;8.542;2024-02-16T03:10:26;4.23;;;2.73;;
9892;SDS011;4985;49.092;8.542;2024-02-16T03:12:52;5.80;;;3.23;;
9892;SDS011;4985;49.092;8.542;2024-02-16T03:15:17;3.33;;;2.60;;
9892;SDS011;4985;49.092;8.542;2024-02-16T03:17:43;4.03;;;2.47;;
9892;SDS011;4985;49.092;8.542;2024-02-16T03:20:09;5.30;;;3.10;;
9892;SDS011;4985;49.092;8.542;2024-02-16T03:22:34;4.93;;;2.93;;
9892;SDS011;4985;49.092;8.542;2024-02-16T03:24:59;6.40;;;2.87;;
9892;SDS011;4985;49.092;8.542;2024-02-16T03:27:25;4.00;;;2.47;;
9892;SDS011;4985;49.092;8.542;2024-02-16T03:29:50;4.00;;;2.63;;
9892;SDS011;4985;49.092;8.542;2024-02-16T03:32:15;6.67;;;3.03;;
9892;SDS011;4985;49.092;8.542;2024-02-16T03:34:42;4.40;;;2.80;;
9892;SDS011;4985;49.092;8.542;2024-02-16T03:37:07;4.83;;;2.30;;
9892;SDS011;4985;49.092;8.542;2024-02-16T03:39:33;3.27;;;2.47;;
9892;SDS011;4985;49.092;8.542;2024-02-16T03:41:58;4.30;;;2.77;;
9892;SDS011;4985;49.092;8.542;2024-02-16T03:44:24;3.63;;;2.73;;
9892;SDS011;4985;49.092;8.542;2024-02-16T03:46:49;3.90;;;2.60;;
9892;SDS011;4985;49.092;8.542;2024-02-16T03:49:15;4.80;;;2.73;;
9892;SDS011;4985;49.092;8.542;2024-02-16T03:51:40;3.80;;;2.50;;
9892;SDS011;4985;49.092;8.542;2024-02-16T03:54:06;3.90;;;2.57;;
9892;SDS011;4985;49.092;8.542;2024-02-16T03:56:32;4.20;;;2.80;;
9892;SDS011;4985;49.092;8.542;2024-02-16T03:58:57;3.33;;;2.83;;
9892;SDS011;4985;49.092;8.542;2024-02-16T04:01:23;2.90;;;2.20;;
9892;SDS011;4985;49.092;8.542;2024-02-16T04:03:48;3.27;;;2.30;;
9892;SDS011;4985;49.092;8.542;2024-02-16T04:06:14;3.93;;;2.37;;
9892;SDS011;4985;49.092;8.542;2024-02-16T04:08:39;4.07;;;2.30;;
9892;SDS011;4985;49.092;8.542;2024-02-16T04:11:04;3.23;;;2.40;;
9892;SDS011;4985;49.092;8.542;2024-02-16T04:13:30;7.57;;;3.13;;
9892;SDS011;4985;49.092;8.542;2024-02-16T04:15:57;4.83;;;2.87;;
9892;SDS011;4985;49.092;8.542;2024-02-16T04:18:22;4.97;;;2.80;;
9892;SDS011;4985;49.092;8.542;2024-02-16T04:20:48;6.43;;;3.00;;
9892;SDS011;4985;49.092;8.542;2024-02-16T04:23:13;5.70;;;2.93;;
9892;SDS011;4985;49.092;8.542;2024-02-16T04:25:38;4.40;;;2.77;;
9892;SDS011;4985;49.092;8.542;2024-02-16T04:28:04;5.37;;;3.10;;
9892;SDS011;4985;49.092;8.542;2024-02-16T04:30:29;4.43;;;3.00;;
9892;SDS011;4985;49.092;8.542;2024-02-16T04:32:55;5.53;;;3.60;;
9892;SDS011;4985;49.092;8.542;2024-02-16T04:35:20;3.63;;;2.60;;
9892;SDS011;4985;49.092;8.542;2024-02-16T04:37:45;3.80;;;2.23;;
9892;SDS011;4985;49.092;8.542;2024-02-16T04:40:11;4.73;;;2.47;;
9892;SDS011;4985;49.092;8.542;2024-02-16T04:42:40;5.30;;;2.63;;
9892;SDS011;4985;49.092;8.542;2024-02-16T04:45:06;5.67;;;2.70;;
9892;SDS011;4985;49.092;8.542;2024-02-16T04:47:32;3.10;;;2.20;;
9892;SDS011;4985;49.092;8.542;2024-02-16T04:49:57;5.83;;;2.37;;
9892;SDS011;4985;49.092;8.542;2024-02-16T04:52:23;3.80;;;2.30;;
9892;SDS011;4985;49.092;8.542;2024-02-16T04:54:48;3.73;;;2.53;;
9892;SDS011;4985;49.092;8.542;2024-02-16T04:57:13;3.33;;;2.73;;
9892;SDS011;4985;49.092;8.542;2024-02-16T04:59:39;3.77;;;2.13;;
9892;SDS011;4985;49.092;8.542;2024-02-16T05:02:04;2.47;;;1.90;;
9892;SDS011;4985;49.092;8.542;2024-02-16T05:04:31;5.20;;;2.93;;
9892;SDS011;4985;49.092;8.542;2024-02-16T05:06:57;2.83;;;2.17;;
9892;SDS011;4985;49.092;8.542;2024-02-16T05:09:23;2.47;;;1.80;;
9892;SDS011;4985;49.092;8.542;2024-02-16T05:11:50;2.90;;;2.00;;
9892;SDS011;4985;49.092;8.542;2024-02-16T05:14:16;4.57;;;2.60;;
9892;SDS011;4985;49.092;8.542;2024-02-16T05:16:44;3.93;;;1.97;;
9892;SDS011;4985;49.092;8.542;2024-02-16T05:19:10;2.33;;;1.93;;
9892;SDS011;4985;49.092;8.542;2024-02-16T05:21:35;3.03;;;2.17;;
9892;SDS011;4985;49.092;8.542;2024-02-16T05:24:01;4.40;;;2.00;;
9892;SDS011;4985;49.092;8.542;2024-02-16T05:26:27;4.80;;;2.00;;
9892;SDS011;4985;49.092;8.542;2024-02-16T05:28:52;2.97;;;1.97;;
9892;SDS011;4985;49.092;8.542;2024-02-16T05:31:17;2.33;;;1.67;;
9892;SDS011;4985;49.092;8.542;2024-02-16T05:33:44;3.37;;;2.27;;
9892;SDS011;4985;49.092;8.542;2024-02-16T05:36:10;3.30;;;2.50;;
9892;SDS011;4985;49.092;8.542;2024-02-16T05:38:35;3.13;;;1.97;;
9892;SDS011;4985;49.092;8.542;2024-02-16T05:41:06;4.73;;;2.13;;
9892;SDS011;4985;49.092;8.542;2024-02-16T05:43:32;3.63;;;2.40;;
9892;SDS011;4985;49.092;8.542;2024-02-16T05:45:59;3.27;;;2.30;;
9892;SDS011;4985;49.092;8.542;2024-02-16T05:48:24;4.60;;;2.43;;
9892;SDS011;4985;49.092;8.542;2024-02-16T05:50:52;2.93;;;2.33;;
9892;SDS011;4985;49.092;8.542;2024-02-16T05:53:17;4.23;;;2.83;;
9892;SDS011;4985;49.092;8.542;2024-02-16T05:55:44;4.00;;;2.90;;
9892;SDS011;4985;49.092;8.542;2024-02-16T05:58:09;4.80;;;2.80;;
9892;SDS011;4985;49.092;8.542;2024-02-16T06:00:35;11.77;;;2.57;;
9892;SDS011;4985;49.092;8.542;2024-02-16T06:03:01;3.93;;;2.73;;
9892;SDS011;4985;49.092;8.542;2024-02-16T06:05:26;4.20;;;2.90;;
9892;SDS011;4985;49.092;8.542;2024-02-16T06:07:52;6.17;;;2.97;;
9892;SDS011;4985;49.092;8.542;2024-02-16T06:10:18;5.53;;;2.97;;
9892;SDS011;4985;49.092;8.542;2024-02-16T06:12:43;3.83;;;2.57;;
9892;SDS011;4985;49.092;8.542;2024-02-16T06:15:08;4.73;;;2.67;;
9892;SDS011;4985;49.092;8.542;2024-02-16T06:17:34;5.43;;;2.97;;
9892;SDS011;4985;49.092;8.542;2024-02-16T06:19:59;4.13;;;2.83;;
9892;SDS011;4985;49.092;8.542;2024-02-16T06:22:25;3.10;;;2.33;;
9892;SDS011;4985;49.092;8.542;2024-02-16T06:24:50;3.77;;;2.40;;
9892;SDS011;4985;49.092;8.542;2024-02-16T06:27:16;5.70;;;3.37;;
9892;SDS011;4985;49.092;8.542;2024-02-16T06:29:41;4.33;;;2.50;;
9892;SDS011;4985;49.092;8.542;2024-02-16T06:32:07;7.20;;;2.57;;
9892;SDS011;4985;49.092;8.542;2024-02-16T06:34:33;5.87;;;2.87;;
9892;SDS011;4985;49.092;8.542;2024-02-16T06:36:58;3.70;;;2.80;;
9892;SDS011;4985;49.092;8.542;2024-02-16T06:39:24;4.57;;;3.00;;
9892;SDS011;4985;49.092;8.542;2024-02-16T06:41:49;4.57;;;2.80;;
9892;SDS011;4985;49.092;8.542;2024-02-16T06:44:15;3.33;;;2.63;;
9892;SDS011;4985;49.092;8.542;2024-02-16T06:46:41;4.23;;;2.80;;
9892;SDS011;4985;49.092;8.542;2024-02-16T06:49:07;5.73;;;3.03;;
9892;SDS011;4985;49.092;8.542;2024-02-16T06:51:33;5.60;;;3.17;;
9892;SDS011;4985;49.092;8.542;2024-02-16T06:53:58;4.73;;;3.10;;
9892;SDS011;4985;49.092;8.542;2024-02-16T06:56:23;7.00;;;3.77;;
9892;SDS011;4985;49.092;8.542;2024-02-16T06:58:49;8.07;;;5.63;;
9892;SDS011;4985;49.092;8.542;2024-02-16T07:01:15;8.87;;;4.77;;
9892;SDS011;4985;49.092;8.542;2024-02-16T07:03:41;7.07;;;4.00;;
9892;SDS011;4985;49.092;8.542;2024-02-16T07:06:08;5.90;;;4.00;;
9892;SDS011;4985;49.092;8.542;2024-02-16T07:08:38;9.00;;;5.60;;
9892;SDS011;4985;49.092;8.542;2024-02-16T07:11:07;13.30;;;8.07;;
9892;SDS011;4985;49.092;8.542;2024-02-16T07:13:34;10.60;;;6.10;;
9892;SDS011;4985;49.092;8.542;2024-02-16T07:15:59;11.63;;;5.97;;
9892;SDS011;4985;49.092;8.542;2024-02-16T07:18:25;9.20;;;5.00;;
9892;SDS011;4985;49.092;8.542;2024-02-16T07:20:50;15.13;;;8.83;;
9892;SDS011;4985;49.092;8.542;2024-02-16T07:23:16;5.80;;;3.60;;
9892;SDS011;4985;49.092;8.542;2024-02-16T07:25:42;6.97;;;3.97;;
9892;SDS011;4985;49.092;8.542;2024-02-16T07:28:08;8.20;;;4.43;;
9892;SDS011;4985;49.092;8.542;2024-02-16T07:30:34;4.53;;;2.67;;
9892;SDS011;4985;49.092;8.542;2024-02-16T07:32:59;10.17;;;5.00;;
9892;SDS011;4985;49.092;8.542;2024-02-16T07:35:25;5.90;;;3.73;;
9892;SDS011;4985;49.092;8.542;2024-02-16T07:37:50;4.43;;;3.50;;
9892;SDS011;4985;49.092;8.542;2024-02-16T07:40:22;5.50;;;3.20;;
9892;SDS011;4985;49.092;8.542;2024-02-16T07:42:47;6.67;;;3.47;;
9892;SDS011;4985;49.092;8.542;2024-02-16T07:45:12;6.07;;;3.47;;
9892;SDS011;4985;49.092;8.542;2024-02-16T07:47:40;4.80;;;3.20;;
9892;SDS011;4985;49.092;8.542;2024-02-16T07:50:06;6.97;;;3.40;;
9892;SDS011;4985;49.092;8.542;2024-02-16T07:52:31;6.13;;;3.40;;
9892;SDS011;4985;49.092;8.542;2024-02-16T07:54:57;4.03;;;3.10;;
9892;SDS011;4985;49.092;8.542;2024-02-16T07:57:23;5.77;;;3.13;;
9892;SDS011;4985;49.092;8.542;2024-02-16T07:59:48;5.43;;;3.13;;
9892;SDS011;4985;49.092;8.542;2024-02-16T08:02:14;6.83;;;3.10;;
9892;SDS011;4985;49.092;8.542;2024-02-16T08:04:43;4.70;;;2.97;;
9892;SDS011;4985;49.092;8.542;2024-02-16T08:07:12;4.40;;;2.80;;
9892;SDS011;4985;49.092;8.542;2024-02-16T08:09:37;4.10;;;2.37;;
9892;SDS011;4985;49.092;8.542;2024-02-16T08:12:03;7.83;;;3.03;;
9892;SDS011;4985;49.092;8.542;2024-02-16T08:14:31;4.27;;;2.67;;
9892;SDS011;4985;49.092;8.542;2024-02-16T08:16:57;4.37;;;3.03;;
9892;SDS011;4985;49.092;8.542;2024-02-16T08:19:23;4.03;;;2.67;;
9892;SDS011;4985;49.092;8.542;2024-02-16T08:21:48;3.37;;;2.40;;
9892;SDS011;4985;49.092;8.542;2024-02-16T08:24:13;5.33;;;2.50;;
9892;SDS011;4985;49.092;8.542;2024-02-16T08:26:39;4.53;;;2.77;;
9892;SDS011;4985;49.092;8.542;2024-02-16T08:29:04;5.33;;;2.97;;
9892;SDS011;4985;49.092;8.542;2024-02-16T08:31:30;3.37;;;2.53;;
9892;SDS011;4985;49.092;8.542;2024-02-16T08:33:55;6.10;;;2.63;;
9892;SDS011;4985;49.092;8.542;2024-02-16T08:36:20;5.73;;;3.00;;
9892;SDS011;4985;49.092;8.542;2024-02-16T08:38:52;3.83;;;2.67;;
9892;SDS011;4985;49.092;8.542;2024-02-16T08:41:18;4.97;;;3.00;;
9892;SDS011;4985;49.092;8.542;2024-02-16T08:43:44;6.67;;;3.30;;
9892;SDS011;4985;49.092;8.542;2024-02-16T08:46:09;4.40;;;3.17;;
9892;SDS011;4985;49.092;8.542;2024-02-16T08:48:35;4.80;;;2.67;;
9892;SDS011;4985;49.092;8.542;2024-02-16T08:51:00;5.43;;;3.17;;
9892;SDS011;4985;49.092;8.542;2024-02-16T08:53:26;8.07;;;4.00;;
9892;SDS011;4985;49.092;8.542;2024-02-16T08:55:51;6.73;;;3.37;;
9892;SDS011;4985;49.092;8.542;2024-02-16T08:58:16;5.10;;;3.27;;
9892;SDS011;4985;49.092;8.542;2024-02-16T09:00:42;7.03;;;3.83;;
9892;SDS011;4985;49.092;8.542;2024-02-16T09:03:07;6.40;;;3.57;;
9892;SDS011;4985;49.092;8.542;2024-02-16T09:05:33;4.77;;;3.53;;
9892;SDS011;4985;49.092;8.542;2024-02-16T09:07:59;5.80;;;2.93;;
9892;SDS011;4985;49.092;8.542;2024-02-16T09:10:24;6.30;;;3.27;;
9892;SDS011;4985;49.092;8.542;2024-02-16T09:12:49;6.10;;;3.27;;
9892;SDS011;4985;49.092;8.542;2024-02-16T09:15:16;4.97;;;3.03;;
9892;SDS011;4985;49.092;8.542;2024-02-16T09:17:42;4.57;;;3.30;;
9892;SDS011;4985;49.092;8.542;2024-02-16T09:20:08;6.00;;;3.27;;
9892;SDS011;4985;49.092;8.542;2024-02-16T09:22:35;6.33;;;3.17;;
9892;SDS011;4985;49.092;8.542;2024-02-16T09:25:01;6.33;;;3.40;;
9892;SDS011;4985;49.092;8.542;2024-02-16T09:27:28;4.53;;;3.33;;
9892;SDS011;4985;49.092;8.542;2024-02-16T09:29:53;4.50;;;2.90;;
9892;SDS011;4985;49.092;8.542;2024-02-16T09:32:18;5.67;;;3.57;;
9892;SDS011;4985;49.092;8.542;2024-02-16T09:34:44;6.80;;;3.27;;
9892;SDS011;4985;49.092;8.542;2024-02-16T09:37:09;5.73;;;3.90;;
9892;SDS011;4985;49.092;8.542;2024-02-16T09:39:36;4.57;;;3.40;;
9892;SDS011;4985;49.092;8.542;2024-02-16T09:42:02;5.30;;;3.83;;
9892;SDS011;4985;49.092;8.542;2024-02-16T09:44:28;4.50;;;3.67;;
9892;SDS011;4985;49.092;8.542;2024-02-16T09:46:54;6.53;;;3.73;;
9892;SDS011;4985;49.092;8.542;2024-02-16T09:49:20;6.57;;;3.00;;
9892;SDS011;4985;49.092;8.542;2024-02-16T09:51:45;5.37;;;3.13;;
9892;SDS011;4985;49.092;8.542;2024-02-16T09:54:10;4.90;;;3.20;;
9892;SDS011;4985;49.092;8.542;2024-02-16T09:56:36;4.37;;;2.90;;
9892;SDS011;4985;49.092;8.542;2024-02-16T09:59:02;5.60;;;3.07;;
9892;SDS011;4985;49.092;8.542;2024-02-16T10:01:27;10.20;;;3.27;;
9892;SDS011;4985;49.092;8.542;2024-02-16T10:03:54;5.20;;;3.13;;
9892;SDS011;4985;49.092;8.542;2024-02-16T10:06:30;7.93;;;3.13;;
9892;SDS011;4985;49.092;8.542;2024-02-16T10:08:56;4.60;;;2.90;;
9892;SDS011;4985;49.092;8.542;2024-02-16T10:11:26;5.13;;;3.20;;
9892;SDS011;4985;49.092;8.542;2024-02-16T10:13:59;4.47;;;2.87;;
9892;SDS011;4985;49.092;8.542;2024-02-16T10:16:26;7.13;;;3.10;;
9892;SDS011;4985;49.092;8.542;2024-02-16T10:18:54;6.20;;;3.20;;
9892;SDS011;4985;49.092;8.542;2024-02-16T10:21:27;6.33;;;2.70;;
9892;SDS011;4985;49.092;8.542;2024-02-16T10:24:07;5.40;;;3.03;;
9892;SDS011;4985;49.092;8.542;2024-02-16T10:26:34;4.30;;;3.13;;
9892;SDS011;4985;49.092;8.542;2024-02-16T10:29:03;4.03;;;2.83;;
9892;SDS011;4985;49.092;8.542;2024-02-16T10:31:29;5.30;;;2.73;;
9892;SDS011;4985;49.092;8.542;2024-02-16T10:33:56;7.70;;;3.37;;
9892;SDS011;4985;49.092;8.542;2024-02-16T10:36:23;4.60;;;2.90;;
9892;SDS011;4985;49.092;8.542;2024-02-16T10:38:50;5.37;;;3.77;;
9892;SDS011;4985;49.092;8.542;2024-02-16T10:41:17;5.10;;;2.90;;
9892;SDS011;4985;49.092;8.542;2024-02-16T10:43:44;4.37;;;3.13;;
9892;SDS011;4985;49.092;8.542;2024-02-16T10:46:13;6.50;;;3.17;;
9892;SDS011;4985;49.092;8.542;2024-02-16T10:48:42;7.73;;;3.47;;
9892;SDS011;4985;49.092;8.542;2024-02-16T10:51:07;6.77;;;3.10;;
9892;SDS011;4985;49.092;8.542;2024-02-16T10:53:34;5.37;;;3.23;;
9892;SDS011;4985;49.092;8.542;2024-02-16T10:56:01;4.43;;;3.00;;
9892;SDS011;4985;49.092;8.542;2024-02-16T10:58:26;5.60;;;2.80;;
9892;SDS011;4985;49.092;8.542;2024-02-16T11:00:53;5.80;;;2.90;;
9892;SDS011;4985;49.092;8.542;2024-02-16T11:03:23;4.10;;;2.90;;
9892;SDS011;4985;49.092;8.542;2024-02-16T11:05:49;4.60;;;2.53;;
9892;SDS011;4985;49.092;8.542;2024-02-16T11:08:16;4.07;;;2.73;;
9892;SDS011;4985;49.092;8.542;2024-02-16T11:13:28;5.63;;;2.80;;
9892;SDS011;4985;49.092;8.542;2024-02-16T11:15:57;3.57;;;2.57;;
9892;SDS011;4985;49.092;8.542;2024-02-16T11:18:31;5.77;;;3.00;;
9892;SDS011;4985;49.092;8.542;2024-02-16T11:21:01;4.00;;;3.00;;
9892;SDS011;4985;49.092;8.542;2024-02-16T11:23:28;4.37;;;3.03;;
9892;SDS011;4985;49.092;8.542;2024-02-16T11:25:54;5.77;;;3.03;;
9892;SDS011;4985;49.092;8.542;2024-02-16T11:28:25;5.73;;;2.33;;
9892;SDS011;4985;49.092;8.542;2024-02-16T11:30:53;3.90;;;2.80;;
9892;SDS011;4985;49.092;8.542;2024-02-16T11:33:18;4.67;;;2.60;;
9892;SDS011;4985;49.092;8.542;2024-02-16T11:35:52;4.17;;;2.27;;
9892;SDS011;4985;49.092;8.542;2024-02-16T11:38:18;4.97;;;2.27;;
9892;SDS011;4985;49.092;8.542;2024-02-16T11:40:52;4.33;;;2.17;;
9892;SDS011;4985;49.092;8.542;2024-02-16T11:43:21;4.37;;;2.37;;
9892;SDS011;4985;49.092;8.542;2024-02-16T11:45:48;3.10;;;2.30;;
9892;SDS011;4985;49.092;8.542;2024-02-16T11:48:18;2.90;;;1.80;;
9892;SDS011;4985;49.092;8.542;2024-02-16T11:50:46;4.53;;;2.00;;
9892;SDS011;4985;49.092;8.542;2024-02-16T11:53:14;7.53;;;2.20;;
9892;SDS011;4985;49.092;8.542;2024-02-16T11:55:46;4.87;;;1.80;;
9892;SDS011;4985;49.092;8.542;2024-02-16T11:58:14;2.23;;;1.60;;
9892;SDS011;4985;49.092;8.542;2024-02-16T12:00:41;2.50;;;1.73;;
9892;SDS011;4985;49.092;8.542;2024-02-16T12:03:07;3.43;;;2.00;;
9892;SDS011;4985;49.092;8.542;2024-02-16T12:05:33;6.40;;;1.87;;
9892;SDS011;4985;49.092;8.542;2024-02-16T12:07:58;5.77;;;2.17;;
9892;SDS011;4985;49.092;8.542;2024-02-16T12:10:24;3.23;;;1.80;;
9892;SDS011;4985;49.092;8.542;2024-02-16T12:12:50;6.90;;;2.30;;
9892;SDS011;4985;49.092;8.542;2024-02-16T12:15:15;3.47;;;2.00;;
9892;SDS011;4985;49.092;8.542;2024-02-16T12:17:42;4.47;;;2.10;;
9892;SDS011;4985;49.092;8.542;2024-02-16T12:20:11;6.07;;;2.23;;
9892;SDS011;4985;49.092;8.542;2024-02-16T12:22:40;4.83;;;2.30;;
9892;SDS011;4985;49.092;8.542;2024-02-16T12:25:05;5.23;;;2.33;;
9892;SDS011;4985;49.092;8.542;2024-02-16T12:27:31;3.90;;;1.93;;
9892;SDS011;4985;49.092;8.542;2024-02-16T12:29:56;4.47;;;2.20;;
9892;SDS011;4985;49.092;8.542;2024-02-16T12:32:21;4.73;;;2.20;;
9892;SDS011;4985;49.092;8.542;2024-02-16T12:34:47;4.30;;;2.00;;
9892;SDS011;4985;49.092;8.542;2024-02-16T12:37:12;5.80;;;2.40;;
9892;SDS011;4985;49.092;8.542;2024-02-16T12:39:38;6.60;;;2.50;;
9892;SDS011;4985;49.092;8.542;2024-02-16T12:42:03;4.53;;;2.30;;
9892;SDS011;4985;49.092;8.542;2024-02-16T12:44:29;5.60;;;2.10;;
9892;SDS011;4985;49.092;8.542;2024-02-16T12:46:55;6.63;;;2.63;;
9892;SDS011;4985;49.092;8.542;2024-02-16T12:49:20;5.80;;;2.07;;
9892;SDS011;4985;49.092;8.542;2024-02-16T12:51:50;5.63;;;2.10;;
9892;SDS011;4985;49.092;8.542;2024-02-16T12:54:17;4.60;;;2.27;;
9892;SDS011;4985;49.092;8.542;2024-02-16T12:56:47;3.13;;;2.03;;
9892;SDS011;4985;49.092;8.542;2024-02-16T12:59:13;5.60;;;2.73;;
9892;SDS011;4985;49.092;8.542;2024-02-16T13:01:39;5.33;;;2.27;;
9892;SDS011;4985;49.092;8.542;2024-02-16T13:04:05;3.47;;;2.27;;
9892;SDS011;4985;49.092;8.542;2024-02-16T13:06:31;4.13;;;2.50;;
9892;SDS011;4985;49.092;8.542;2024-02-16T13:08:56;6.30;;;2.40;;
9892;SDS011;4985;49.092;8.542;2024-02-16T13:11:21;3.97;;;2.30;;
9892;SDS011;4985;49.092;8.542;2024-02-16T13:13:47;5.17;;;2.00;;
9892;SDS011;4985;49.092;8.542;2024-02-16T13:16:12;3.97;;;1.73;;
9892;SDS011;4985;49.092;8.542;2024-02-16T13:18:38;4.13;;;1.90;;
9892;SDS011;4985;49.092;8.542;2024-02-16T13:21:03;3.97;;;2.53;;
9892;SDS011;4985;49.092;8.542;2024-02-16T13:23:28;6.77;;;2.00;;
9892;SDS011;4985;49.092;8.542;2024-02-16T13:25:56;3.37;;;2.00;;
9892;SDS011;4985;49.092;8.542;2024-02-16T13:28:21;4.07;;;2.07;;
9892;SDS011;4985;49.092;8.542;2024-02-16T13:30:46;3.20;;;2.03;;
9892;SDS011;4985;49.092;8.542;2024-02-16T13:33:12;3.90;;;2.27;;
9892;SDS011;4985;49.092;8.542;2024-02-16T13:35:37;3.93;;;1.93;;
9892;SDS011;4985;49.092;8.542;2024-02-16T13:38:03;3.30;;;2.07;;
9892;SDS011;4985;49.092;8.542;2024-02-16T13:40:28;4.37;;;2.00;;
9892;SDS011;4985;49.092;8.542;2024-02-16T13:42:54;3.93;;;2.00;;
9892;SDS011;4985;49.092;8.542;2024-02-16T13:45:26;4.17;;;1.90;;
9892;SDS011;4985;49.092;8.542;2024-02-16T13:48:10;2.90;;;1.90;;
9892;SDS011;4985;49.092;8.542;2024-02-16T13:50:35;4.73;;;2.27;;
9892;SDS011;4985;49.092;8.542;2024-02-16T13:53:00;4.93;;;1.73;;
9892;SDS011;4985;49.092;8.542;2024-02-16T13:55:26;3.80;;;1.90;;
9892;SDS011;4985;49.092;8.542;2024-02-16T13:57:51;2.10;;;1.67;;
9892;SDS011;4985;49.092;8.542;2024-02-16T14:00:17;4.70;;;1.83;;
9892;SDS011;4985;49.092;8.542;2024-02-16T14:02:42;4.63;;;2.00;;
9892;SDS011;4985;49.092;8.542;2024-02-16T14:05:08;3.23;;;1.77;;
9892;SDS011;4985;49.092;8.542;2024-02-16T14:07:34;3.40;;;1.70;;
9892;SDS011;4985;49.092;8.542;2024-02-16T14:10:00;2.37;;;1.53;;
9892;SDS011;4985;49.092;8.542;2024-02-16T14:12:25;2.07;;;1.70;;
9892;SDS011;4985;49.092;8.542;2024-02-16T14:14:51;1.97;;;1.60;;
9892;SDS011;4985;49.092;8.542;2024-02-16T14:17:16;3.80;;;2.13;;
9892;SDS011;4985;49.092;8.542;2024-02-16T14:19:42;3.73;;;1.57;;
9892;SDS011;4985;49.092;8.542;2024-02-16T14:22:07;5.57;;;1.80;;
9892;SDS011;4985;49.092;8.542;2024-02-16T14:24:33;2.63;;;1.43;;
9892;SDS011;4985;49.092;8.542;2024-02-16T14:26:58;3.23;;;1.97;;
9892;SDS011;4985;49.092;8.542;2024-02-16T14:29:24;4.33;;;1.67;;
9892;SDS011;4985;49.092;8.542;2024-02-16T14:31:50;2.07;;;1.27;;
9892;SDS011;4985;49.092;8.542;2024-02-16T14:34:15;2.00;;;1.40;;
9892;SDS011;4985;49.092;8.542;2024-02-16T14:36:40;2.60;;;1.53;;
9892;SDS011;4985;49.092;8.542;2024-02-16T14:39:05;6.50;;;1.60;;
9892;SDS011;4985;49.092;8.542;2024-02-16T14:41:31;2.53;;;1.40;;
9892;SDS011;4985;49.092;8.542;2024-02-16T14:43:57;2.20;;;1.40;;
9892;SDS011;4985;49.092;8.542;2024-02-16T14:46:26;2.27;;;1.20;;
9892;SDS011;4985;49.092;8.542;2024-02-16T14:48:52;1.90;;;1.60;;
9892;SDS011;4985;49.092;8.542;2024-02-16T14:51:17;5.07;;;1.63;;
9892;SDS011;4985;49.092;8.542;2024-02-16T14:53:42;5.97;;;1.87;;
9892;SDS011;4985;49.092;8.542;2024-02-16T14:56:08;3.50;;;1.77;;
9892;SDS011;4985;49.092;8.542;2024-02-16T14:58:33;4.27;;;1.80;;
9892;SDS011;4985;49.092;8.542;2024-02-16T15:00:59;1.97;;;1.40;;
9892;SDS011;4985;49.092;8.542;2024-02-16T15:03:26;3.43;;;1.20;;
9892;SDS011;4985;49.092;8.542;2024-02-16T15:05:55;4.27;;;1.63;;
9892;SDS011;4985;49.092;8.542;2024-02-16T15:08:20;2.67;;;1.47;;
9892;SDS011;4985;49.092;8.542;2024-02-16T15:10:45;1.63;;;1.43;;